createdAt,value
2017-09-09T00:01:36.781Z,9.52
2017-09-09T00:04:04.302Z,9.39
2017-09-09T00:06:31.819Z,9.92
2017-09-09T00:08:59.331Z,9.50
2017-09-09T00:11:26.840Z,9.36
2017-09-09T00:13:54.340Z,9.14
2017-09-09T00:16:21.859Z,9.49
2017-09-09T00:18:49.396Z,9.45
2017-09-09T00:21:16.896Z,9.14
2017-09-09T00:23:44.402Z,9.28
2017-09-09T00:26:11.901Z,9.14
2017-09-09T00:28:39.454Z,9.03
2017-09-09T00:31:06.970Z,8.90
2017-09-09T00:33:34.477Z,9.08
2017-09-09T00:36:02.008Z,9.31
2017-09-09T00:38:29.517Z,9.28
2017-09-09T00:40:57.023Z,9.54
2017-09-09T00:43:24.544Z,9.26
2017-09-09T00:45:52.051Z,9.32
2017-09-09T00:48:19.564Z,9.10
2017-09-09T00:50:47.087Z,9.14
2017-09-09T00:53:14.598Z,9.00
2017-09-09T00:55:42.103Z,9.05
2017-09-09T00:58:09.628Z,8.99
2017-09-09T01:00:37.150Z,9.43
2017-09-09T01:03:04.665Z,9.20
2017-09-09T01:05:32.225Z,9.19
2017-09-09T01:07:59.811Z,9.10
2017-09-09T01:10:27.306Z,9.48
2017-09-09T01:12:54.830Z,9.58
2017-09-09T01:15:22.367Z,9.35
2017-09-09T01:17:49.877Z,9.25
2017-09-09T01:20:17.391Z,9.29
2017-09-09T01:22:44.900Z,9.14
2017-09-09T01:25:12.419Z,8.86
2017-09-09T01:27:39.931Z,8.94
2017-09-09T01:30:07.461Z,9.01
2017-09-09T01:32:34.967Z,9.25
2017-09-09T01:35:02.462Z,8.79
2017-09-09T01:37:29.971Z,9.31
2017-09-09T01:39:57.487Z,9.05
2017-09-09T01:42:24.992Z,9.28
2017-09-09T01:44:52.506Z,9.16
2017-09-09T01:47:20.012Z,8.95
2017-09-09T01:49:47.529Z,9.02
2017-09-09T01:52:15.022Z,8.73
2017-09-09T01:54:42.528Z,8.67
2017-09-09T01:57:10.044Z,8.61
2017-09-09T01:59:37.551Z,8.66
2017-09-09T02:02:05.118Z,8.70
2017-09-09T02:04:32.623Z,8.68
2017-09-09T02:07:00.119Z,8.75
2017-09-09T02:09:27.646Z,9.37
2017-09-09T02:11:55.153Z,9.01
2017-09-09T02:14:22.654Z,9.03
2017-09-09T02:16:50.154Z,9.14
2017-09-09T02:19:17.694Z,9.24
2017-09-09T02:21:45.194Z,9.24
2017-09-09T02:24:12.764Z,9.23
2017-09-09T02:26:40.270Z,9.08
2017-09-09T02:29:07.770Z,9.21
2017-09-09T02:31:35.283Z,9.00
2017-09-09T02:34:02.793Z,9.16
2017-09-09T02:36:30.311Z,9.49
2017-09-09T02:38:57.820Z,9.56
2017-09-09T02:41:25.328Z,9.82
2017-09-09T02:43:52.829Z,9.81
2017-09-09T02:46:20.336Z,9.72
2017-09-09T02:48:47.869Z,9.77
2017-09-09T02:51:15.378Z,9.63
2017-09-09T02:53:42.887Z,9.53
2017-09-09T02:56:10.392Z,9.49
2017-09-09T02:58:37.896Z,9.63
2017-09-09T03:01:05.393Z,9.42
2017-09-09T03:03:32.907Z,9.16
2017-09-09T03:06:00.416Z,9.30
2017-09-09T03:08:27.934Z,9.35
2017-09-09T03:10:55.432Z,9.26
2017-09-09T03:13:22.947Z,9.29
2017-09-09T03:15:50.460Z,9.30
2017-09-09T03:18:17.972Z,9.60
2017-09-09T03:20:45.494Z,9.58
2017-09-09T03:23:13.019Z,9.61
2017-09-09T03:25:40.512Z,9.83
2017-09-09T03:28:08.020Z,9.90
2017-09-09T03:30:35.547Z,10.01
2017-09-09T03:33:03.051Z,9.83
2017-09-09T03:35:30.547Z,9.87
2017-09-09T03:37:58.046Z,9.85
2017-09-09T03:40:25.555Z,9.76
2017-09-09T03:42:53.075Z,10.07
2017-09-09T03:45:20.583Z,10.36
2017-09-09T03:47:48.084Z,10.16
2017-09-09T03:50:15.586Z,10.11
2017-09-09T03:52:43.131Z,10.22
2017-09-09T03:55:10.658Z,10.21
2017-09-09T03:57:38.159Z,10.26
2017-09-09T04:00:05.664Z,10.16
2017-09-09T04:02:33.178Z,10.22
2017-09-09T04:05:00.678Z,10.40
2017-09-09T04:07:28.184Z,10.35
2017-09-09T04:09:55.690Z,10.60
2017-09-09T04:12:23.222Z,10.66
2017-09-09T04:14:50.736Z,10.77
2017-09-09T04:17:18.240Z,10.52
2017-09-09T04:19:45.869Z,10.54
2017-09-09T04:22:13.369Z,10.57
2017-09-09T04:24:40.879Z,10.58
2017-09-09T04:27:08.379Z,10.51
2017-09-09T04:29:35.927Z,10.38
2017-09-09T04:32:03.442Z,10.34
2017-09-09T04:34:30.969Z,10.32
2017-09-09T04:36:58.468Z,10.36
2017-09-09T04:39:26.004Z,10.51
2017-09-09T04:41:53.513Z,10.54
2017-09-09T04:44:21.033Z,10.57
2017-09-09T04:46:48.539Z,10.78
2017-09-09T04:49:16.047Z,10.58
2017-09-09T04:51:43.561Z,10.58
2017-09-09T04:54:11.072Z,10.41
2017-09-09T04:56:38.585Z,10.66
2017-09-09T04:59:06.094Z,10.72
2017-09-09T05:01:33.615Z,10.47
2017-09-09T05:04:01.128Z,10.48
2017-09-09T05:06:28.644Z,10.43
2017-09-09T05:08:56.151Z,10.41
2017-09-09T05:11:23.684Z,10.39
2017-09-09T05:13:51.191Z,10.49
2017-09-09T05:16:18.740Z,10.48
2017-09-09T05:18:46.242Z,10.49
2017-09-09T05:21:13.870Z,10.74
2017-09-09T05:23:41.400Z,10.78
2017-09-09T05:26:08.900Z,10.89
2017-09-09T05:28:36.435Z,10.94
2017-09-09T05:31:03.956Z,11.07
2017-09-09T05:33:31.459Z,11.09
2017-09-09T05:35:58.985Z,10.69
2017-09-09T05:38:26.492Z,10.82
2017-09-09T05:40:54.025Z,10.89
2017-09-09T05:43:21.541Z,10.76
2017-09-09T05:45:49.063Z,10.75
2017-09-09T05:48:16.574Z,10.75
2017-09-09T05:50:44.105Z,10.77
2017-09-09T05:53:11.609Z,10.88
2017-09-09T05:55:39.118Z,11.02
2017-09-09T05:58:06.621Z,11.04
2017-09-09T06:00:34.132Z,11.04
2017-09-09T06:03:01.646Z,11.33
2017-09-09T06:05:29.205Z,11.36
2017-09-09T06:07:56.708Z,11.44
2017-09-09T06:10:24.223Z,11.35
2017-09-09T06:12:51.734Z,11.13
2017-09-09T06:15:19.254Z,11.03
2017-09-09T06:17:46.781Z,11.19
2017-09-09T06:20:14.310Z,11.22
2017-09-09T06:22:41.822Z,11.30
2017-09-09T06:25:13.927Z,11.21
2017-09-09T06:27:41.467Z,11.12
2017-09-09T06:30:09.031Z,11.08
2017-09-09T06:32:36.544Z,11.27
2017-09-09T06:35:04.062Z,11.73
2017-09-09T06:37:31.586Z,11.83
2017-09-09T06:39:59.103Z,11.88
2017-09-09T06:42:26.652Z,11.90
2017-09-09T06:44:54.172Z,11.93
2017-09-09T06:47:21.701Z,11.99
2017-09-09T06:49:49.247Z,11.82
2017-09-09T06:52:18.206Z,11.77
2017-09-09T06:54:45.755Z,11.51
2017-09-09T06:57:13.284Z,11.32
2017-09-09T06:59:40.957Z,11.30
2017-09-09T07:02:08.617Z,11.55
2017-09-09T07:04:36.128Z,11.58
2017-09-09T07:07:03.643Z,11.84
2017-09-09T07:09:31.191Z,11.89
2017-09-09T07:11:58.866Z,11.65
2017-09-09T07:14:26.374Z,11.71
2017-09-09T07:16:53.889Z,11.94
2017-09-09T07:19:21.447Z,11.78
2017-09-09T07:21:48.964Z,11.74
2017-09-09T07:24:16.502Z,11.94
2017-09-09T07:26:44.027Z,11.74
2017-09-09T07:29:11.531Z,11.76
2017-09-09T07:31:39.046Z,11.79
2017-09-09T07:34:06.559Z,11.95
2017-09-09T07:36:34.071Z,12.04
2017-09-09T07:39:01.624Z,12.25
2017-09-09T07:41:29.163Z,12.29
2017-09-09T07:43:56.745Z,12.45
2017-09-09T07:46:24.263Z,12.54
2017-09-09T07:48:51.767Z,12.53
2017-09-09T07:51:19.296Z,12.72
2017-09-09T07:53:46.791Z,12.74
2017-09-09T07:56:14.320Z,12.87
2017-09-09T07:58:41.844Z,13.08
2017-09-09T08:01:09.354Z,13.18
2017-09-09T08:03:36.872Z,13.24
2017-09-09T08:06:04.395Z,13.30
2017-09-09T08:08:31.899Z,13.38
2017-09-09T08:10:59.407Z,13.37
2017-09-09T08:13:26.919Z,13.35
2017-09-09T08:15:54.464Z,13.28
2017-09-09T08:18:21.984Z,13.37
2017-09-09T08:20:49.493Z,13.22
2017-09-09T08:23:17.034Z,13.17
2017-09-09T08:25:44.675Z,13.17
2017-09-09T08:28:12.179Z,13.17
2017-09-09T08:30:39.694Z,13.25
2017-09-09T08:33:07.209Z,13.38
2017-09-09T08:35:34.797Z,13.25
2017-09-09T08:38:02.321Z,13.21
2017-09-09T08:40:29.871Z,13.27
2017-09-09T08:42:57.406Z,13.47
2017-09-09T08:45:24.925Z,13.48
2017-09-09T08:47:52.447Z,13.82
2017-09-09T08:50:19.966Z,13.63
2017-09-09T08:52:47.487Z,13.66
2017-09-09T08:55:15.013Z,13.65
2017-09-09T08:57:42.536Z,13.57
2017-09-09T09:00:10.040Z,13.70
2017-09-09T09:02:37.576Z,13.74
2017-09-09T09:05:05.120Z,13.78
2017-09-09T09:07:32.639Z,13.87
2017-09-09T09:10:00.152Z,13.86
2017-09-09T09:12:27.670Z,13.91
2017-09-09T09:14:55.175Z,14.01
2017-09-09T09:17:22.703Z,14.06
2017-09-09T09:19:50.219Z,14.13
2017-09-09T09:22:17.714Z,14.20
2017-09-09T09:24:45.236Z,14.20
2017-09-09T09:27:12.771Z,14.20
2017-09-09T09:29:40.296Z,14.26
2017-09-09T09:32:07.816Z,14.30
2017-09-09T09:34:35.340Z,14.39
2017-09-09T09:37:02.851Z,14.31
2017-09-09T09:39:30.400Z,14.34
2017-09-09T09:41:57.941Z,14.51
2017-09-09T09:44:25.456Z,14.44
2017-09-09T09:46:52.991Z,14.39
2017-09-09T09:49:20.496Z,14.31
2017-09-09T09:51:48.011Z,14.43
2017-09-09T09:54:15.528Z,14.57
2017-09-09T09:56:43.031Z,14.51
2017-09-09T09:59:10.938Z,14.50
2017-09-09T10:01:38.448Z,14.74
2017-09-09T10:04:05.963Z,14.53
2017-09-09T10:06:33.492Z,14.31
2017-09-09T10:09:01.015Z,14.52
2017-09-09T10:11:28.582Z,14.81
2017-09-09T10:13:56.135Z,14.63
2017-09-09T10:16:23.694Z,14.60
2017-09-09T10:18:51.232Z,14.33
2017-09-09T10:21:18.856Z,14.37
2017-09-09T10:23:46.354Z,14.56
2017-09-09T10:26:13.864Z,14.53
2017-09-09T10:28:41.399Z,14.66
2017-09-09T10:31:08.951Z,14.76
2017-09-09T10:33:36.473Z,15.15
2017-09-09T10:36:04.093Z,15.17
2017-09-09T10:38:31.609Z,15.10
2017-09-09T10:40:59.131Z,15.42
2017-09-09T10:43:26.629Z,15.20
2017-09-09T10:45:54.130Z,15.35
2017-09-09T10:48:21.656Z,15.28
2017-09-09T10:50:49.183Z,15.11
2017-09-09T10:53:16.731Z,15.73
2017-09-09T10:55:44.426Z,15.54
2017-09-09T10:58:11.928Z,15.69
2017-09-09T11:00:39.452Z,16.13
2017-09-09T11:03:06.975Z,16.29
2017-09-09T11:05:34.488Z,16.35
2017-09-09T11:08:01.996Z,16.62
2017-09-09T11:10:29.507Z,16.20
2017-09-09T11:12:57.041Z,16.13
2017-09-09T11:15:24.570Z,15.75
2017-09-09T11:17:52.099Z,15.78
2017-09-09T11:20:19.623Z,15.68
2017-09-09T11:22:47.154Z,15.89
2017-09-09T11:25:14.669Z,15.82
2017-09-09T11:27:42.194Z,16.10
2017-09-09T11:30:09.690Z,16.44
2017-09-09T11:32:37.190Z,16.59
2017-09-09T11:35:04.716Z,16.54
2017-09-09T11:37:33.115Z,16.68
2017-09-09T11:40:00.637Z,16.85
2017-09-09T11:42:28.351Z,17.09
2017-09-09T11:44:55.876Z,17.12
2017-09-09T11:47:23.401Z,17.24
2017-09-09T11:49:50.914Z,17.02
2017-09-09T11:52:18.472Z,17.27
2017-09-09T11:54:45.979Z,17.18
2017-09-09T11:57:13.512Z,17.53
2017-09-09T11:59:41.051Z,17.58
2017-09-09T12:02:08.585Z,17.58
2017-09-09T12:04:36.087Z,17.93
2017-09-09T12:07:03.600Z,18.17
2017-09-09T12:09:31.109Z,18.27
2017-09-09T12:11:58.603Z,17.99
2017-09-09T12:14:26.132Z,18.15
2017-09-09T12:16:53.731Z,17.92
2017-09-09T12:19:21.244Z,17.76
2017-09-09T12:21:48.749Z,17.95
2017-09-09T12:24:16.593Z,17.69
2017-09-09T12:26:44.098Z,17.54
2017-09-09T12:29:11.952Z,17.48
2017-09-09T12:31:39.481Z,17.55
2017-09-09T12:34:07.135Z,17.33
2017-09-09T12:36:34.666Z,17.16
2017-09-09T12:39:02.180Z,17.37
2017-09-09T12:41:29.687Z,17.30
2017-09-09T12:43:57.212Z,16.78
2017-09-09T12:46:24.762Z,17.04
2017-09-09T12:48:52.286Z,16.66
2017-09-09T12:51:19.792Z,16.58
2017-09-09T12:53:47.316Z,16.50
2017-09-09T12:56:14.849Z,16.42
2017-09-09T12:58:42.386Z,16.77
2017-09-09T13:01:09.890Z,17.45
2017-09-09T13:03:37.398Z,17.24
2017-09-09T13:06:04.908Z,17.11
2017-09-09T13:08:32.446Z,17.30
2017-09-09T13:10:59.973Z,17.65
2017-09-09T13:13:27.492Z,17.75
2017-09-09T13:15:55.005Z,17.71
2017-09-09T13:18:22.516Z,17.73
2017-09-09T13:20:50.031Z,17.70
2017-09-09T13:23:17.557Z,18.08
2017-09-09T13:25:45.086Z,18.07
2017-09-09T13:28:12.596Z,17.90
2017-09-09T13:30:40.143Z,18.01
2017-09-09T13:33:07.695Z,17.79
2017-09-09T13:35:35.207Z,17.77
2017-09-09T13:38:02.748Z,17.71
2017-09-09T13:40:30.295Z,17.64
2017-09-09T13:42:57.848Z,17.48
2017-09-09T13:45:25.367Z,17.32
2017-09-09T13:47:52.900Z,17.79
2017-09-09T13:50:20.427Z,17.67
2017-09-09T13:52:47.943Z,17.84
2017-09-09T13:55:15.443Z,17.69
2017-09-09T13:57:42.997Z,17.66
2017-09-09T14:00:10.504Z,17.54
2017-09-09T14:02:38.026Z,17.32
2017-09-09T14:05:05.533Z,17.23
2017-09-09T14:07:33.047Z,17.27
2017-09-09T14:10:00.567Z,17.31
2017-09-09T14:12:28.087Z,17.41
2017-09-09T14:14:55.595Z,17.48
2017-09-09T14:17:23.125Z,17.20
2017-09-09T14:19:50.642Z,17.15
2017-09-09T14:22:18.159Z,16.65
2017-09-09T14:24:45.660Z,16.66
2017-09-09T14:27:13.171Z,16.81
2017-09-09T14:29:40.695Z,16.54
2017-09-09T14:32:08.199Z,16.27
2017-09-09T14:34:35.709Z,15.99
2017-09-09T14:37:03.238Z,16.15
2017-09-09T14:39:30.883Z,16.32
2017-09-09T14:41:58.398Z,16.38
2017-09-09T14:44:25.899Z,16.30
2017-09-09T14:46:53.560Z,16.16
2017-09-09T14:49:21.080Z,16.26
2017-09-09T14:51:48.592Z,15.93
2017-09-09T14:54:16.113Z,16.21
2017-09-09T14:56:43.619Z,16.16
2017-09-09T14:59:11.130Z,16.22
2017-09-09T15:01:38.646Z,16.17
2017-09-09T15:04:06.168Z,16.37
2017-09-09T15:06:33.676Z,16.34
2017-09-09T15:09:01.195Z,16.16
2017-09-09T15:11:28.715Z,16.37
2017-09-09T15:13:56.262Z,16.12
2017-09-09T15:16:23.784Z,16.09
2017-09-09T15:18:51.323Z,16.23
2017-09-09T15:21:18.847Z,15.98
2017-09-09T15:23:46.351Z,16.27
2017-09-09T15:26:13.908Z,16.06
2017-09-09T15:28:41.435Z,15.86
2017-09-09T15:31:08.948Z,16.05
2017-09-09T15:33:36.468Z,16.14
2017-09-09T15:36:03.976Z,15.85
2017-09-09T15:38:31.523Z,16.00
2017-09-09T15:40:59.026Z,15.93
2017-09-09T15:43:26.551Z,16.03
2017-09-09T15:45:54.083Z,15.94
2017-09-09T15:48:21.625Z,15.88
2017-09-09T15:50:49.126Z,15.62
2017-09-09T15:53:16.635Z,15.70
2017-09-09T15:55:44.198Z,15.69
2017-09-09T15:58:11.803Z,15.47
2017-09-09T16:00:39.352Z,15.62
2017-09-09T16:03:06.878Z,15.81
2017-09-09T16:05:34.411Z,15.56
2017-09-09T16:08:01.931Z,15.52
2017-09-09T16:10:29.468Z,15.41
2017-09-09T16:12:56.974Z,15.49
2017-09-09T16:15:24.476Z,15.51
2017-09-09T16:17:51.980Z,15.31
2017-09-09T16:20:19.499Z,15.61
2017-09-09T16:22:47.025Z,15.57
2017-09-09T16:25:14.552Z,15.89
2017-09-09T16:27:42.055Z,15.28
2017-09-09T16:30:09.556Z,15.04
2017-09-09T16:32:37.578Z,14.93
2017-09-09T16:35:05.078Z,15.03
2017-09-09T16:37:32.601Z,15.01
2017-09-09T16:40:00.111Z,14.89
2017-09-09T16:42:27.615Z,14.86
2017-09-09T16:44:55.142Z,14.89
2017-09-09T16:47:22.651Z,15.02
2017-09-09T16:49:50.181Z,14.97
2017-09-09T16:52:17.708Z,15.07
2017-09-09T16:54:45.211Z,14.97
2017-09-09T16:57:12.747Z,14.92
2017-09-09T16:59:40.270Z,14.87
2017-09-09T17:02:07.815Z,14.82
2017-09-09T17:04:35.339Z,14.83
2017-09-09T17:07:02.870Z,14.73
2017-09-09T17:09:30.443Z,14.40
2017-09-09T17:11:57.988Z,14.74
2017-09-09T17:14:25.565Z,14.59
2017-09-09T17:16:53.078Z,14.78
2017-09-09T17:19:20.601Z,14.59
2017-09-09T17:21:48.113Z,14.48
2017-09-09T17:24:15.703Z,14.57
2017-09-09T17:26:43.209Z,14.72
2017-09-09T17:29:10.712Z,14.63
2017-09-09T17:31:38.212Z,14.15
2017-09-09T17:34:05.744Z,14.00
2017-09-09T17:36:33.252Z,14.04
2017-09-09T17:39:00.776Z,14.05
2017-09-09T17:41:28.308Z,14.04
2017-09-09T17:43:55.813Z,14.09
2017-09-09T17:46:23.336Z,13.96
2017-09-09T17:48:50.866Z,13.97
2017-09-09T17:51:18.386Z,14.20
2017-09-09T17:53:45.901Z,14.18
2017-09-09T17:56:13.419Z,14.06
2017-09-09T17:58:41.066Z,13.94
2017-09-09T18:01:08.580Z,13.92
2017-09-09T18:03:36.124Z,13.81
2017-09-09T18:06:03.627Z,13.85
2017-09-09T18:08:31.134Z,13.90
2017-09-09T18:10:58.663Z,13.76
2017-09-09T18:13:26.203Z,13.71
2017-09-09T18:15:53.723Z,13.60
2017-09-09T18:18:21.240Z,13.66
2017-09-09T18:20:48.755Z,14.06
2017-09-09T18:23:16.277Z,14.33
2017-09-09T18:25:43.795Z,14.23
2017-09-09T18:28:11.301Z,14.17
2017-09-09T18:30:38.830Z,14.13
2017-09-09T18:33:06.396Z,14.10
2017-09-09T18:35:33.899Z,13.93
2017-09-09T18:38:01.432Z,13.87
2017-09-09T18:40:28.991Z,14.04
2017-09-09T18:42:56.512Z,14.02
2017-09-09T18:45:24.024Z,13.90
2017-09-09T18:47:51.544Z,13.78
2017-09-09T18:50:19.080Z,13.71
2017-09-09T18:52:46.583Z,13.55
2017-09-09T18:55:14.129Z,13.89
2017-09-09T18:57:41.640Z,13.94
2017-09-09T19:00:09.155Z,13.94
2017-09-09T19:02:36.656Z,13.72
2017-09-09T19:05:04.180Z,13.69
2017-09-09T19:07:31.797Z,13.56
2017-09-09T19:09:59.315Z,13.81
2017-09-09T19:12:26.842Z,13.90
2017-09-09T19:14:54.513Z,14.03
2017-09-09T19:17:22.024Z,14.05
2017-09-09T19:19:49.566Z,13.95
2017-09-09T19:22:17.138Z,14.05
2017-09-09T19:24:44.688Z,13.91
2017-09-09T19:27:12.192Z,13.33
2017-09-09T19:29:39.721Z,13.12
2017-09-09T19:32:07.245Z,13.08
2017-09-09T19:34:34.886Z,12.98
2017-09-09T19:37:02.398Z,13.02
2017-09-09T19:39:29.930Z,12.99
2017-09-09T19:41:57.525Z,12.84
2017-09-09T19:44:25.033Z,13.36
2017-09-09T19:46:52.591Z,13.62
2017-09-09T19:49:20.102Z,13.54
2017-09-09T19:51:47.630Z,13.17
2017-09-09T19:54:15.168Z,13.19
2017-09-09T19:56:42.667Z,13.59
2017-09-09T19:59:10.213Z,13.29
2017-09-09T20:01:37.723Z,13.31
2017-09-09T20:04:05.227Z,13.64
2017-09-09T20:06:32.769Z,13.53
2017-09-09T20:09:00.351Z,13.40
2017-09-09T20:11:27.899Z,13.47
2017-09-09T20:13:55.419Z,13.16
2017-09-09T20:16:22.920Z,13.13
2017-09-09T20:18:50.438Z,12.90
2017-09-09T20:21:17.975Z,12.70
2017-09-09T20:23:45.484Z,12.64
2017-09-09T20:26:13.030Z,12.70
2017-09-09T20:28:40.545Z,12.92
2017-09-09T20:31:08.082Z,12.84
2017-09-09T20:33:35.602Z,12.75
2017-09-09T20:36:03.120Z,13.21
2017-09-09T20:38:30.639Z,13.12
2017-09-09T20:40:58.176Z,13.27
2017-09-09T20:43:25.684Z,13.18
2017-09-09T20:45:53.180Z,12.97
2017-09-09T20:48:20.711Z,12.76
2017-09-09T20:50:48.362Z,12.44
2017-09-09T20:53:15.873Z,12.52
2017-09-09T20:55:43.384Z,12.64
2017-09-09T20:58:10.907Z,12.81
2017-09-09T21:00:38.435Z,12.74
2017-09-09T21:03:05.951Z,12.53
2017-09-09T21:05:33.524Z,12.38
2017-09-09T21:08:01.049Z,12.38
2017-09-09T21:10:28.568Z,12.33
2017-09-09T21:12:56.127Z,12.27
2017-09-09T21:15:23.643Z,12.41
2017-09-09T21:17:51.155Z,12.39
2017-09-09T21:20:18.680Z,12.54
2017-09-09T21:22:46.206Z,12.52
2017-09-09T21:25:13.920Z,12.31
2017-09-09T21:27:41.473Z,12.43
2017-09-09T21:30:09.027Z,12.26
2017-09-09T21:32:36.531Z,12.39
2017-09-09T21:35:04.068Z,12.40
2017-09-09T21:37:31.583Z,12.32
2017-09-09T21:39:59.131Z,12.37
2017-09-09T21:42:26.636Z,12.25
2017-09-09T21:44:54.171Z,12.28
2017-09-09T21:47:21.712Z,12.21
2017-09-09T21:49:49.227Z,12.18
2017-09-09T21:52:16.767Z,12.26
2017-09-09T21:54:44.271Z,12.29
2017-09-09T21:57:11.788Z,12.27
2017-09-09T21:59:39.307Z,12.27
2017-09-09T22:02:06.843Z,12.27
2017-09-09T22:04:34.355Z,12.28
2017-09-09T22:07:01.900Z,12.21
2017-09-09T22:09:29.444Z,12.07
2017-09-09T22:11:56.960Z,12.26
2017-09-09T22:14:24.462Z,12.27
2017-09-09T22:16:51.980Z,12.31
2017-09-09T22:19:19.484Z,12.16
2017-09-09T22:21:47.006Z,12.26
2017-09-09T22:24:14.535Z,12.36
2017-09-09T22:26:42.036Z,12.63
2017-09-09T22:29:09.546Z,12.78
2017-09-09T22:31:37.048Z,12.83
2017-09-09T22:34:04.551Z,12.43
2017-09-09T22:36:32.063Z,12.34
2017-09-09T22:38:59.573Z,12.24
2017-09-09T22:41:27.081Z,12.16
2017-09-09T22:43:54.603Z,12.24
2017-09-09T22:46:22.128Z,12.16
2017-09-09T22:48:49.687Z,12.51
2017-09-09T22:51:17.199Z,12.60
2017-09-09T22:53:44.706Z,12.27
2017-09-09T22:56:12.227Z,12.10
2017-09-09T22:58:39.745Z,12.01
2017-09-09T23:01:07.280Z,12.11
2017-09-09T23:03:34.792Z,12.03
2017-09-09T23:06:02.313Z,12.13
2017-09-09T23:08:29.815Z,12.14
2017-09-09T23:10:57.362Z,12.02
2017-09-09T23:13:24.884Z,12.01
2017-09-09T23:15:52.387Z,12.11
2017-09-09T23:18:19.895Z,12.07
2017-09-09T23:20:47.422Z,12.03
2017-09-09T23:23:14.947Z,11.84
2017-09-09T23:25:42.467Z,11.95
2017-09-09T23:28:10.008Z,11.93
2017-09-09T23:30:37.550Z,11.97
2017-09-09T23:33:05.070Z,11.88
2017-09-09T23:35:32.602Z,11.94
2017-09-09T23:38:00.142Z,11.94
2017-09-09T23:40:27.655Z,11.85
2017-09-09T23:42:55.177Z,11.85
2017-09-09T23:45:22.686Z,11.84
2017-09-09T23:47:50.219Z,11.84
2017-09-09T23:50:17.720Z,12.16
2017-09-09T23:52:45.239Z,12.08
2017-09-09T23:55:12.759Z,12.05
2017-09-09T23:57:40.294Z,12.06
